Mountain Home, Utah
Current Conditions -  °F | °C
As of 7:53 AM on Thursday 18 Dec 2014 (Local Time) from KVEL Reporting Station
Haze Haze  
Wind Chill: 17°   Ceiling: 400
Heat Index: 24°   Visibility: 5mi
Dew Point: 23°   Wind: 6mph
Humidity: 96%   Direction: 140°SE
Pressure: 30.16"   Gusts: NA
Location:  40.4°N, 110.39°W
Report Text: KVEL 181453Z AUTO 14005KT 5SM BR OVC004 M04/M05 A3016 RMK AO2 SLP248 I1000 I3000 T10441050 51012
Loading
Personal Weather Stations






























Interactive Weather Map New forecast layout! Learn more

10-Day Weather Forecast

Advertisements
Track Severe Weather on mobile